
<gpx xmlns="http://www.topografix.com/GPX/1/1" xmlns:gpxx="http://www.garmin.com/xmlschemas/GpxExtensions/v3" xmlns:xsi="http://www.w3.org/2001/XMLSchema-instance" version="1.1" creator="Adze - https://getadze.com/" xsi:schemaLocation="http://www.topografix.com/GPX/1/1 http://www.topografix.com/GPX/1/1/gpx.xsd">
    <metadata>
        <name>GPS_2020-12-04_234700</name>
        <time>2021-02-23T00:31:20.396Z</time>
    </metadata>
    <trk>
        <name>December 2020</name>
        <extensions>
            <gpxx:TrackExtension>
                <gpxx:DisplayColor>DarkMagenta</gpxx:DisplayColor>
            </gpxx:TrackExtension>
        </extensions>
        <trkseg>
            <trkpt lon="100.442537" lat="14.024984">
                <ele>0.000000</ele>
                <time>2020-12-04T23:47:00Z</time>
            </trkpt>
            <trkpt lon="100.442466" lat="14.024847">
                <ele>0.000000</ele>
                <time>2020-12-04T23:47:01.020Z</time>
            </trkpt>
            <trkpt lon="100.442466" lat="14.024847">
                <ele>0.000000</ele>
                <time>2020-12-04T23:47:01.080Z</time>
            </trkpt>
            <trkpt lon="100.441602" lat="14.025059">
                <ele>0.000000</ele>
                <time>2020-12-04T23:47:06.840Z</time>
            </trkpt>
            <trkpt lon="100.441602" lat="14.025059">
                <ele>0.000000</ele>
                <time>2020-12-04T23:47:06.900Z</time>
            </trkpt>
            <trkpt lon="100.441448" lat="14.024656">
                <ele>0.000000</ele>
                <time>2020-12-04T23:47:09.770Z</time>
            </trkpt>
            <trkpt lon="100.441448" lat="14.024656">
                <ele>0.000000</ele>
                <time>2020-12-04T23:47:09.830Z</time>
            </trkpt>
            <trkpt lon="100.436430" lat="14.025637">
                <ele>0.000000</ele>
                <time>2020-12-04T23:47:42.940Z</time>
            </trkpt>
            <trkpt lon="100.436430" lat="14.025637">
                <ele>0.000000</ele>
                <time>2020-12-04T23:47:43Z</time>
            </trkpt>
            <trkpt lon="100.436342" lat="14.024936">
                <ele>0.000000</ele>
                <time>2020-12-04T23:47:47.700Z</time>
            </trkpt>
            <trkpt lon="100.436342" lat="14.024936">
                <ele>0.000000</ele>
                <time>2020-12-04T23:47:47.760Z</time>
            </trkpt>
            <trkpt lon="100.436380" lat="14.025656">
                <ele>0.000000</ele>
                <time>2020-12-04T23:47:52.570Z</time>
            </trkpt>
            <trkpt lon="100.436380" lat="14.025656">
                <ele>0.000000</ele>
                <time>2020-12-04T23:47:52.630Z</time>
            </trkpt>
            <trkpt lon="100.431967" lat="14.026654">
                <ele>0.000000</ele>
                <time>2020-12-04T23:48:21.940Z</time>
            </trkpt>
            <trkpt lon="100.431967" lat="14.026654">
                <ele>0.000000</ele>
                <time>2020-12-04T23:48:22Z</time>
            </trkpt>
            <trkpt lon="100.432563" lat="14.029979">
                <ele>0.000000</ele>
                <time>2020-12-04T23:48:44.500Z</time>
            </trkpt>
            <trkpt lon="100.432563" lat="14.029979">
                <ele>0.000000</ele>
                <time>2020-12-04T23:48:44.560Z</time>
            </trkpt>
            <trkpt lon="100.429084" lat="14.031255">
                <ele>0.000000</ele>
                <time>2020-12-04T23:49:08.610Z</time>
            </trkpt>
            <trkpt lon="100.429084" lat="14.031255">
                <ele>0.000000</ele>
                <time>2020-12-04T23:49:08.670Z</time>
            </trkpt>
            <trkpt lon="100.426676" lat="14.032464">
                <ele>0.000000</ele>
                <time>2020-12-04T23:49:26.210Z</time>
            </trkpt>
            <trkpt lon="100.426676" lat="14.032464">
                <ele>0.000000</ele>
                <time>2020-12-04T23:49:26.270Z</time>
            </trkpt>
            <trkpt lon="100.423788" lat="14.034500">
                <ele>0.000000</ele>
                <time>2020-12-04T23:49:49.360Z</time>
            </trkpt>
            <trkpt lon="100.423788" lat="14.034500">
                <ele>0.000000</ele>
                <time>2020-12-04T23:49:49.420Z</time>
            </trkpt>
            <trkpt lon="100.422794" lat="14.036091">
                <ele>0.000000</ele>
                <time>2020-12-04T23:50:01.820Z</time>
            </trkpt>
            <trkpt lon="100.422794" lat="14.036091">
                <ele>0.000000</ele>
                <time>2020-12-04T23:50:01.880Z</time>
            </trkpt>
            <trkpt lon="100.419476" lat="14.034729">
                <ele>0.000000</ele>
                <time>2020-12-04T23:50:25.180Z</time>
            </trkpt>
            <trkpt lon="100.419476" lat="14.034729">
                <ele>0.000000</ele>
                <time>2020-12-04T23:50:25.240Z</time>
            </trkpt>
            <trkpt lon="100.418927" lat="14.022321">
                <ele>0.000000</ele>
                <time>2020-12-04T23:51:48.040Z</time>
            </trkpt>
            <trkpt lon="100.418927" lat="14.022321">
                <ele>0.000000</ele>
                <time>2020-12-04T23:51:48.100Z</time>
            </trkpt>
            <trkpt lon="100.417593" lat="14.022649">
                <ele>0.000000</ele>
                <time>2020-12-04T23:51:57Z</time>
            </trkpt>
            <trkpt lon="100.417593" lat="14.022649">
                <ele>0.000000</ele>
                <time>2020-12-04T23:51:57.060Z</time>
            </trkpt>
            <trkpt lon="100.417048" lat="14.021808">
                <ele>0.000000</ele>
                <time>2020-12-04T23:52:03.680Z</time>
            </trkpt>
            <trkpt lon="100.417048" lat="14.021808">
                <ele>0.000000</ele>
                <time>2020-12-04T23:52:03.740Z</time>
            </trkpt>
            <trkpt lon="100.418917" lat="14.021264">
                <ele>0.000000</ele>
                <time>2020-12-04T23:52:16.360Z</time>
            </trkpt>
            <trkpt lon="100.418917" lat="14.021264">
                <ele>0.000000</ele>
                <time>2020-12-04T23:52:16.420Z</time>
            </trkpt>
            <trkpt lon="100.418692" lat="14.017231">
                <ele>0.000000</ele>
                <time>2020-12-04T23:52:43.350Z</time>
            </trkpt>
            <trkpt lon="100.418692" lat="14.017231">
                <ele>0.000000</ele>
                <time>2020-12-04T23:52:43.410Z</time>
            </trkpt>
            <trkpt lon="100.417042" lat="14.017857">
                <ele>0.000000</ele>
                <time>2020-12-04T23:52:54.870Z</time>
            </trkpt>
            <trkpt lon="100.417042" lat="14.017857">
                <ele>0.000000</ele>
                <time>2020-12-04T23:52:54.930Z</time>
            </trkpt>
            <trkpt lon="100.416085" lat="14.012023">
                <ele>0.000000</ele>
                <time>2020-12-04T23:53:34.310Z</time>
            </trkpt>
            <trkpt lon="100.416085" lat="14.012023">
                <ele>0.000000</ele>
                <time>2020-12-04T23:53:34.370Z</time>
            </trkpt>
            <trkpt lon="100.417808" lat="14.011570">
                <ele>0.000000</ele>
                <time>2020-12-04T23:53:45.920Z</time>
            </trkpt>
            <trkpt lon="100.417808" lat="14.011570">
                <ele>0.000000</ele>
                <time>2020-12-04T23:53:45.980Z</time>
            </trkpt>
            <trkpt lon="100.417667" lat="14.010188">
                <ele>0.000000</ele>
                <time>2020-12-04T23:53:55.240Z</time>
            </trkpt>
            <trkpt lon="100.417667" lat="14.010188">
                <ele>0.000000</ele>
                <time>2020-12-04T23:53:55.300Z</time>
            </trkpt>
            <trkpt lon="100.418215" lat="14.009802">
                <ele>0.000000</ele>
                <time>2020-12-04T23:53:59.680Z</time>
            </trkpt>
            <trkpt lon="100.418215" lat="14.009802">
                <ele>0.000000</ele>
                <time>2020-12-04T23:53:59.740Z</time>
            </trkpt>
            <trkpt lon="100.418363" lat="14.009885">
                <ele>0.000000</ele>
                <time>2020-12-04T23:54:00.840Z</time>
            </trkpt>
            <trkpt lon="100.418363" lat="14.009885">
                <ele>0.000000</ele>
                <time>2020-12-04T23:54:00.900Z</time>
            </trkpt>
            <trkpt lon="100.420242" lat="14.009179">
                <ele>0.000000</ele>
                <time>2020-12-04T23:54:13.940Z</time>
            </trkpt>
            <trkpt lon="100.420242" lat="14.009179">
                <ele>0.000000</ele>
                <time>2020-12-04T23:54:14Z</time>
            </trkpt>
            <trkpt lon="100.418249" lat="14.009925">
                <ele>0.000000</ele>
                <time>2020-12-04T23:54:27.820Z</time>
            </trkpt>
            <trkpt lon="100.418249" lat="14.009925">
                <ele>0.000000</ele>
                <time>2020-12-04T23:54:27.880Z</time>
            </trkpt>
            <trkpt lon="100.418108" lat="14.008756">
                <ele>0.000000</ele>
                <time>2020-12-04T23:54:35.720Z</time>
            </trkpt>
            <trkpt lon="100.418108" lat="14.008756">
                <ele>0.000000</ele>
                <time>2020-12-04T23:54:35.780Z</time>
            </trkpt>
            <trkpt lon="100.417347" lat="14.008903">
                <ele>0.000000</ele>
                <time>2020-12-04T23:54:40.800Z</time>
            </trkpt>
            <trkpt lon="100.417347" lat="14.008903">
                <ele>0.000000</ele>
                <time>2020-12-04T23:54:40.860Z</time>
            </trkpt>
            <trkpt lon="100.417065" lat="14.008494">
                <ele>0.000000</ele>
                <time>2020-12-04T23:54:44.140Z</time>
            </trkpt>
            <trkpt lon="100.417065" lat="14.008494">
                <ele>0.000000</ele>
                <time>2020-12-04T23:54:44.200Z</time>
            </trkpt>
            <trkpt lon="100.414870" lat="14.003201">
                <ele>0.000000</ele>
                <time>2020-12-04T23:55:22.240Z</time>
            </trkpt>
            <trkpt lon="100.414870" lat="14.003201">
                <ele>0.000000</ele>
                <time>2020-12-04T23:55:22.300Z</time>
            </trkpt>
            <trkpt lon="100.415126" lat="14.003104">
                <ele>0.000000</ele>
                <time>2020-12-04T23:55:24.080Z</time>
            </trkpt>
            <trkpt lon="100.415126" lat="14.003104">
                <ele>0.000000</ele>
                <time>2020-12-04T23:55:24.140Z</time>
            </trkpt>
            <trkpt lon="100.415304" lat="14.003241">
                <ele>0.000000</ele>
                <time>2020-12-04T23:55:25.600Z</time>
            </trkpt>
            <trkpt lon="100.415304" lat="14.003241">
                <ele>0.000000</ele>
                <time>2020-12-04T23:55:25.660Z</time>
            </trkpt>
            <trkpt lon="100.415505" lat="14.003702">
                <ele>0.000000</ele>
                <time>2020-12-04T23:55:29Z</time>
            </trkpt>
            <trkpt lon="100.415505" lat="14.003702">
                <ele>0.000000</ele>
                <time>2020-12-04T23:55:29.060Z</time>
            </trkpt>
            <trkpt lon="100.417719" lat="14.002972">
                <ele>0.000000</ele>
                <time>2020-12-04T23:55:44.190Z</time>
            </trkpt>
            <trkpt lon="100.417719" lat="14.002972">
                <ele>0.000000</ele>
                <time>2020-12-04T23:55:44.250Z</time>
            </trkpt>
            <trkpt lon="100.417661" lat="14.002322">
                <ele>0.000000</ele>
                <time>2020-12-04T23:55:48.600Z</time>
            </trkpt>
            <trkpt lon="100.417661" lat="14.002322">
                <ele>0.000000</ele>
                <time>2020-12-04T23:55:48.660Z</time>
            </trkpt>
            <trkpt lon="100.417567" lat="14.001894">
                <ele>0.000000</ele>
                <time>2020-12-04T23:55:51.570Z</time>
            </trkpt>
            <trkpt lon="100.417567" lat="14.001894">
                <ele>0.000000</ele>
                <time>2020-12-04T23:55:51.630Z</time>
            </trkpt>
            <trkpt lon="100.415100" lat="14.002798">
                <ele>0.000000</ele>
                <time>2020-12-04T23:56:08.690Z</time>
            </trkpt>
            <trkpt lon="100.415100" lat="14.002798">
                <ele>0.000000</ele>
                <time>2020-12-04T23:56:08.750Z</time>
            </trkpt>
            <trkpt lon="100.414932" lat="14.002475">
                <ele>0.000000</ele>
                <time>2020-12-04T23:56:11.160Z</time>
            </trkpt>
            <trkpt lon="100.414932" lat="14.002475">
                <ele>0.000000</ele>
                <time>2020-12-04T23:56:11.220Z</time>
            </trkpt>
            <trkpt lon="100.409706" lat="14.004336">
                <ele>0.000000</ele>
                <time>2020-12-04T23:56:47.230Z</time>
            </trkpt>
            <trkpt lon="100.409706" lat="14.004336">
                <ele>0.000000</ele>
                <time>2020-12-04T23:56:47.290Z</time>
            </trkpt>
            <trkpt lon="100.408388" lat="14.000994">
                <ele>0.000000</ele>
                <time>2020-12-04T23:57:11.150Z</time>
            </trkpt>
            <trkpt lon="100.408388" lat="14.000994">
                <ele>0.000000</ele>
                <time>2020-12-04T23:57:11.210Z</time>
            </trkpt>
            <trkpt lon="100.407916" lat="14.001008">
                <ele>0.000000</ele>
                <time>2020-12-04T23:57:14.260Z</time>
            </trkpt>
            <trkpt lon="100.407916" lat="14.001008">
                <ele>0.000000</ele>
                <time>2020-12-04T23:57:14.320Z</time>
            </trkpt>
            <trkpt lon="100.407564" lat="14.000545">
                <ele>0.000000</ele>
                <time>2020-12-04T23:57:18.160Z</time>
            </trkpt>
            <trkpt lon="100.407564" lat="14.000545">
                <ele>0.000000</ele>
                <time>2020-12-04T23:57:18.220Z</time>
            </trkpt>
            <trkpt lon="100.405939" lat="14.001340">
                <ele>0.000000</ele>
                <time>2020-12-04T23:57:29.990Z</time>
            </trkpt>
            <trkpt lon="100.405939" lat="14.001340">
                <ele>0.000000</ele>
                <time>2020-12-04T23:57:30.050Z</time>
            </trkpt>
            <trkpt lon="100.405449" lat="13.999704">
                <ele>0.000000</ele>
                <time>2020-12-04T23:57:41.410Z</time>
            </trkpt>
            <trkpt lon="100.405449" lat="13.999704">
                <ele>0.000000</ele>
                <time>2020-12-04T23:57:41.470Z</time>
            </trkpt>
            <trkpt lon="100.404018" lat="13.997197">
                <ele>0.000000</ele>
                <time>2020-12-04T23:58:00.580Z</time>
            </trkpt>
            <trkpt lon="100.404018" lat="13.997197">
                <ele>0.000000</ele>
                <time>2020-12-04T23:58:00.640Z</time>
            </trkpt>
            <trkpt lon="100.397715" lat="13.999873">
                <ele>0.000000</ele>
                <time>2020-12-04T23:58:45.140Z</time>
            </trkpt>
            <trkpt lon="100.397715" lat="13.999873">
                <ele>0.000000</ele>
                <time>2020-12-04T23:58:45.200Z</time>
            </trkpt>
            <trkpt lon="100.397515" lat="13.999927">
                <ele>0.000000</ele>
                <time>2020-12-04T23:58:46.540Z</time>
            </trkpt>
            <trkpt lon="100.397515" lat="13.999927">
                <ele>0.000000</ele>
                <time>2020-12-04T23:58:46.600Z</time>
            </trkpt>
            <trkpt lon="100.397093" lat="13.999208">
                <ele>0.000000</ele>
                <time>2020-12-04T23:58:52.120Z</time>
            </trkpt>
            <trkpt lon="100.397093" lat="13.999208">
                <ele>0.000000</ele>
                <time>2020-12-04T23:58:52.180Z</time>
            </trkpt>
            <trkpt lon="100.396659" lat="13.999344">
                <ele>0.000000</ele>
                <time>2020-12-04T23:58:55.130Z</time>
            </trkpt>
            <trkpt lon="100.396659" lat="13.999344">
                <ele>0.000000</ele>
                <time>2020-12-04T23:58:55.190Z</time>
            </trkpt>
            <trkpt lon="100.391048" lat="14.002049">
                <ele>0.000000</ele>
                <time>2020-12-04T23:59:35.720Z</time>
            </trkpt>
            <trkpt lon="100.391048" lat="14.002049">
                <ele>0.000000</ele>
                <time>2020-12-04T23:59:35.780Z</time>
            </trkpt>
            <trkpt lon="100.390066" lat="13.997858">
                <ele>0.000000</ele>
                <time>2020-12-05T00:00:04.430Z</time>
            </trkpt>
            <trkpt lon="100.390066" lat="13.997858">
                <ele>0.000000</ele>
                <time>2020-12-05T00:00:04.490Z</time>
            </trkpt>
            <trkpt lon="100.390379" lat="13.997681">
                <ele>0.000000</ele>
                <time>2020-12-05T00:00:06.840Z</time>
            </trkpt>
            <trkpt lon="100.390379" lat="13.997681">
                <ele>0.000000</ele>
                <time>2020-12-05T00:00:06.900Z</time>
            </trkpt>
            <trkpt lon="100.390845" lat="13.997462">
                <ele>0.000000</ele>
                <time>2020-12-05T00:00:10.240Z</time>
            </trkpt>
            <trkpt lon="100.390845" lat="13.997462">
                <ele>0.000000</ele>
                <time>2020-12-05T00:00:10.300Z</time>
            </trkpt>
            <trkpt lon="100.392371" lat="13.996729">
                <ele>0.000000</ele>
                <time>2020-12-05T00:00:21.320Z</time>
            </trkpt>
            <trkpt lon="100.392371" lat="13.996729">
                <ele>0.000000</ele>
                <time>2020-12-05T00:00:21.380Z</time>
            </trkpt>
            <trkpt lon="100.393002" lat="13.996400">
                <ele>0.000000</ele>
                <time>2020-12-05T00:00:26.010Z</time>
            </trkpt>
            <trkpt lon="100.393002" lat="13.996400">
                <ele>0.000000</ele>
                <time>2020-12-05T00:00:26.070Z</time>
            </trkpt>
            <trkpt lon="100.392109" lat="13.994166">
                <ele>0.000000</ele>
                <time>2020-12-05T00:00:42.040Z</time>
            </trkpt>
            <trkpt lon="100.392109" lat="13.994166">
                <ele>0.000000</ele>
                <time>2020-12-05T00:00:42.100Z</time>
            </trkpt>
            <trkpt lon="100.391289" lat="13.994315">
                <ele>0.000000</ele>
                <time>2020-12-05T00:00:47.500Z</time>
            </trkpt>
            <trkpt lon="100.391289" lat="13.994315">
                <ele>0.000000</ele>
                <time>2020-12-05T00:00:47.560Z</time>
            </trkpt>
            <trkpt lon="100.390806" lat="13.992459">
                <ele>0.000000</ele>
                <time>2020-12-05T00:01:00.320Z</time>
            </trkpt>
            <trkpt lon="100.390806" lat="13.992459">
                <ele>0.000000</ele>
                <time>2020-12-05T00:01:00.380Z</time>
            </trkpt>
            <trkpt lon="100.401068" lat="13.989803">
                <ele>0.000000</ele>
                <time>2020-12-05T00:02:09.090Z</time>
            </trkpt>
            <trkpt lon="100.401068" lat="13.989803">
                <ele>0.000000</ele>
                <time>2020-12-05T00:02:09.150Z</time>
            </trkpt>
            <trkpt lon="100.402761" lat="13.989257">
                <ele>0.000000</ele>
                <time>2020-12-05T00:02:20.690Z</time>
            </trkpt>
            <trkpt lon="100.402761" lat="13.989257">
                <ele>0.000000</ele>
                <time>2020-12-05T00:02:20.750Z</time>
            </trkpt>
            <trkpt lon="100.403443" lat="13.990740">
                <ele>0.000000</ele>
                <time>2020-12-05T00:02:31.570Z</time>
            </trkpt>
            <trkpt lon="100.403443" lat="13.990740">
                <ele>0.000000</ele>
                <time>2020-12-05T00:02:31.630Z</time>
            </trkpt>
            <trkpt lon="100.404476" lat="13.992386">
                <ele>0.000000</ele>
                <time>2020-12-05T00:02:44.480Z</time>
            </trkpt>
            <trkpt lon="100.404476" lat="13.992386">
                <ele>0.000000</ele>
                <time>2020-12-05T00:02:44.540Z</time>
            </trkpt>
            <trkpt lon="100.406833" lat="13.996848">
                <ele>0.000000</ele>
                <time>2020-12-05T00:03:17.970Z</time>
            </trkpt>
            <trkpt lon="100.406833" lat="13.996848">
                <ele>0.000000</ele>
                <time>2020-12-05T00:03:18.030Z</time>
            </trkpt>
            <trkpt lon="100.411126" lat="13.995782">
                <ele>0.000000</ele>
                <time>2020-12-05T00:03:46.690Z</time>
            </trkpt>
            <trkpt lon="100.411126" lat="13.995782">
                <ele>0.000000</ele>
                <time>2020-12-05T00:03:46.750Z</time>
            </trkpt>
            <trkpt lon="100.412446" lat="13.995246">
                <ele>0.000000</ele>
                <time>2020-12-05T00:03:56.010Z</time>
            </trkpt>
            <trkpt lon="100.412446" lat="13.995246">
                <ele>0.000000</ele>
                <time>2020-12-05T00:03:56.070Z</time>
            </trkpt>
            <trkpt lon="100.417468" lat="13.993835">
                <ele>0.000000</ele>
                <time>2020-12-05T00:04:29.890Z</time>
            </trkpt>
            <trkpt lon="100.417468" lat="13.993835">
                <ele>0.000000</ele>
                <time>2020-12-05T00:04:29.950Z</time>
            </trkpt>
            <trkpt lon="100.420420" lat="13.999922">
                <ele>0.000000</ele>
                <time>2020-12-05T00:05:14.800Z</time>
            </trkpt>
            <trkpt lon="100.420420" lat="13.999922">
                <ele>0.000000</ele>
                <time>2020-12-05T00:05:14.860Z</time>
            </trkpt>
            <trkpt lon="100.421610" lat="13.999444">
                <ele>0.000000</ele>
                <time>2020-12-05T00:05:23.190Z</time>
            </trkpt>
            <trkpt lon="100.421610" lat="13.999444">
                <ele>0.000000</ele>
                <time>2020-12-05T00:05:23.250Z</time>
            </trkpt>
            <trkpt lon="100.422307" lat="14.000931">
                <ele>0.000000</ele>
                <time>2020-12-05T00:05:34.140Z</time>
            </trkpt>
            <trkpt lon="100.422307" lat="14.000931">
                <ele>0.000000</ele>
                <time>2020-12-05T00:05:34.200Z</time>
            </trkpt>
            <trkpt lon="100.427955" lat="13.999050">
                <ele>0.000000</ele>
                <time>2020-12-05T00:06:12.830Z</time>
            </trkpt>
            <trkpt lon="100.427955" lat="13.999050">
                <ele>0.000000</ele>
                <time>2020-12-05T00:06:12.890Z</time>
            </trkpt>
            <trkpt lon="100.428074" lat="13.998749">
                <ele>0.000000</ele>
                <time>2020-12-05T00:06:15.040Z</time>
            </trkpt>
            <trkpt lon="100.428074" lat="13.998749">
                <ele>0.000000</ele>
                <time>2020-12-05T00:06:15.100Z</time>
            </trkpt>
            <trkpt lon="100.430167" lat="13.998007">
                <ele>0.000000</ele>
                <time>2020-12-05T00:06:29.510Z</time>
            </trkpt>
            <trkpt lon="100.430167" lat="13.998007">
                <ele>0.000000</ele>
                <time>2020-12-05T00:06:29.570Z</time>
            </trkpt>
            <trkpt lon="100.430530" lat="13.998342">
                <ele>0.000000</ele>
                <time>2020-12-05T00:06:32.810Z</time>
            </trkpt>
            <trkpt lon="100.430530" lat="13.998342">
                <ele>0.000000</ele>
                <time>2020-12-05T00:06:32.870Z</time>
            </trkpt>
            <trkpt lon="100.436039" lat="13.996814">
                <ele>0.000000</ele>
                <time>2020-12-05T00:07:09.940Z</time>
            </trkpt>
            <trkpt lon="100.436039" lat="13.996814">
                <ele>0.000000</ele>
                <time>2020-12-05T00:07:10Z</time>
            </trkpt>
            <trkpt lon="100.436229" lat="13.996624">
                <ele>0.000000</ele>
                <time>2020-12-05T00:07:11.760Z</time>
            </trkpt>
            <trkpt lon="100.436229" lat="13.996624">
                <ele>0.000000</ele>
                <time>2020-12-05T00:07:11.820Z</time>
            </trkpt>
            <trkpt lon="100.436131" lat="13.996176">
                <ele>0.000000</ele>
                <time>2020-12-05T00:07:14.870Z</time>
            </trkpt>
            <trkpt lon="100.436131" lat="13.996176">
                <ele>0.000000</ele>
                <time>2020-12-05T00:07:14.930Z</time>
            </trkpt>
            <trkpt lon="100.436233" lat="13.996108">
                <ele>0.000000</ele>
                <time>2020-12-05T00:07:15.740Z</time>
            </trkpt>
            <trkpt lon="100.436233" lat="13.996108">
                <ele>0.000000</ele>
                <time>2020-12-05T00:07:15.800Z</time>
            </trkpt>
            <trkpt lon="100.438884" lat="13.995424">
                <ele>0.000000</ele>
                <time>2020-12-05T00:07:33.540Z</time>
            </trkpt>
            <trkpt lon="100.438884" lat="13.995424">
                <ele>0.000000</ele>
                <time>2020-12-05T00:07:33.600Z</time>
            </trkpt>
            <trkpt lon="100.439347" lat="13.998539">
                <ele>0.000000</ele>
                <time>2020-12-05T00:07:54.580Z</time>
            </trkpt>
            <trkpt lon="100.439347" lat="13.998539">
                <ele>0.000000</ele>
                <time>2020-12-05T00:07:54.640Z</time>
            </trkpt>
            <trkpt lon="100.439569" lat="13.998665">
                <ele>0.000000</ele>
                <time>2020-12-05T00:07:56.300Z</time>
            </trkpt>
            <trkpt lon="100.439569" lat="13.998665">
                <ele>0.000000</ele>
                <time>2020-12-05T00:07:56.360Z</time>
            </trkpt>
            <trkpt lon="100.447625" lat="13.997101">
                <ele>0.000000</ele>
                <time>2020-12-05T00:08:49.510Z</time>
            </trkpt>
            <trkpt lon="100.447625" lat="13.997101">
                <ele>0.000000</ele>
                <time>2020-12-05T00:08:49.570Z</time>
            </trkpt>
            <trkpt lon="100.448274" lat="13.996794">
                <ele>0.000000</ele>
                <time>2020-12-05T00:08:54.240Z</time>
            </trkpt>
            <trkpt lon="100.448274" lat="13.996794">
                <ele>0.000000</ele>
                <time>2020-12-05T00:08:54.300Z</time>
            </trkpt>
            <trkpt lon="100.449810" lat="13.996588">
                <ele>0.000000</ele>
                <time>2020-12-05T00:09:04.330Z</time>
            </trkpt>
            <trkpt lon="100.449810" lat="13.996588">
                <ele>0.000000</ele>
                <time>2020-12-05T00:09:04.390Z</time>
            </trkpt>
            <trkpt lon="100.450421" lat="13.996656">
                <ele>0.000000</ele>
                <time>2020-12-05T00:09:08.370Z</time>
            </trkpt>
            <trkpt lon="100.450421" lat="13.996656">
                <ele>0.000000</ele>
                <time>2020-12-05T00:09:08.430Z</time>
            </trkpt>
            <trkpt lon="100.451353" lat="13.996324">
                <ele>0.000000</ele>
                <time>2020-12-05T00:09:14.850Z</time>
            </trkpt>
            <trkpt lon="100.451353" lat="13.996324">
                <ele>0.000000</ele>
                <time>2020-12-05T00:09:14.910Z</time>
            </trkpt>
            <trkpt lon="100.452377" lat="13.995892">
                <ele>0.000000</ele>
                <time>2020-12-05T00:09:22.130Z</time>
            </trkpt>
            <trkpt lon="100.452377" lat="13.995892">
                <ele>0.000000</ele>
                <time>2020-12-05T00:09:22.190Z</time>
            </trkpt>
            <trkpt lon="100.455761" lat="13.993636">
                <ele>0.000000</ele>
                <time>2020-12-05T00:09:48.750Z</time>
            </trkpt>
            <trkpt lon="100.455761" lat="13.993636">
                <ele>0.000000</ele>
                <time>2020-12-05T00:09:48.810Z</time>
            </trkpt>
            <trkpt lon="100.455430" lat="13.991249">
                <ele>0.000000</ele>
                <time>2020-12-05T00:10:04.870Z</time>
            </trkpt>
            <trkpt lon="100.455430" lat="13.991249">
                <ele>0.000000</ele>
                <time>2020-12-05T00:10:04.930Z</time>
            </trkpt>
            <trkpt lon="100.455395" lat="13.989344">
                <ele>0.000000</ele>
                <time>2020-12-05T00:10:17.630Z</time>
            </trkpt>
            <trkpt lon="100.455395" lat="13.989344">
                <ele>0.000000</ele>
                <time>2020-12-05T00:10:17.690Z</time>
            </trkpt>
            <trkpt lon="100.462000" lat="13.987455">
                <ele>0.000000</ele>
                <time>2020-12-05T00:11:02.240Z</time>
            </trkpt>
            <trkpt lon="100.462000" lat="13.987455">
                <ele>0.000000</ele>
                <time>2020-12-05T00:11:02.300Z</time>
            </trkpt>
            <trkpt lon="100.460665" lat="13.984390">
                <ele>0.000000</ele>
                <time>2020-12-05T00:11:24.480Z</time>
            </trkpt>
            <trkpt lon="100.460665" lat="13.984390">
                <ele>0.000000</ele>
                <time>2020-12-05T00:11:24.540Z</time>
            </trkpt>
            <trkpt lon="100.461789" lat="13.984264">
                <ele>0.000000</ele>
                <time>2020-12-05T00:11:31.860Z</time>
            </trkpt>
            <trkpt lon="100.461789" lat="13.984264">
                <ele>0.000000</ele>
                <time>2020-12-05T00:11:31.920Z</time>
            </trkpt>
            <trkpt lon="100.463208" lat="13.984518">
                <ele>0.000000</ele>
                <time>2020-12-05T00:11:41.250Z</time>
            </trkpt>
            <trkpt lon="100.463208" lat="13.984518">
                <ele>0.000000</ele>
                <time>2020-12-05T00:11:41.310Z</time>
            </trkpt>
            <trkpt lon="100.464608" lat="13.982697">
                <ele>0.000000</ele>
                <time>2020-12-05T00:11:56.460Z</time>
            </trkpt>
            <trkpt lon="100.464608" lat="13.982697">
                <ele>0.000000</ele>
                <time>2020-12-05T00:11:56.520Z</time>
            </trkpt>
            <trkpt lon="100.467451" lat="13.983389">
                <ele>0.000000</ele>
                <time>2020-12-05T00:12:15.480Z</time>
            </trkpt>
            <trkpt lon="100.467451" lat="13.983389">
                <ele>0.000000</ele>
                <time>2020-12-05T00:12:15.540Z</time>
            </trkpt>
            <trkpt lon="100.467382" lat="13.984170">
                <ele>0.000000</ele>
                <time>2020-12-05T00:12:20.770Z</time>
            </trkpt>
            <trkpt lon="100.467382" lat="13.984170">
                <ele>0.000000</ele>
                <time>2020-12-05T00:12:20.830Z</time>
            </trkpt>
            <trkpt lon="100.466687" lat="13.985127">
                <ele>0.000000</ele>
                <time>2020-12-05T00:12:28.630Z</time>
            </trkpt>
            <trkpt lon="100.466687" lat="13.985127">
                <ele>0.000000</ele>
                <time>2020-12-05T00:12:28.690Z</time>
            </trkpt>
            <trkpt lon="100.466412" lat="13.986427">
                <ele>0.000000</ele>
                <time>2020-12-05T00:12:37.540Z</time>
            </trkpt>
            <trkpt lon="100.466412" lat="13.986427">
                <ele>0.000000</ele>
                <time>2020-12-05T00:12:37.600Z</time>
            </trkpt>
            <trkpt lon="100.467943" lat="13.989202">
                <ele>0.000000</ele>
                <time>2020-12-05T00:12:58.580Z</time>
            </trkpt>
            <trkpt lon="100.467943" lat="13.989202">
                <ele>0.000000</ele>
                <time>2020-12-05T00:12:58.640Z</time>
            </trkpt>
            <trkpt lon="100.468739" lat="13.990005">
                <ele>0.000000</ele>
                <time>2020-12-05T00:13:06.070Z</time>
            </trkpt>
            <trkpt lon="100.468739" lat="13.990005">
                <ele>0.000000</ele>
                <time>2020-12-05T00:13:06.130Z</time>
            </trkpt>
            <trkpt lon="100.470224" lat="13.989784">
                <ele>0.000000</ele>
                <time>2020-12-05T00:13:15.850Z</time>
            </trkpt>
            <trkpt lon="100.470224" lat="13.989784">
                <ele>0.000000</ele>
                <time>2020-12-05T00:13:15.910Z</time>
            </trkpt>
            <trkpt lon="100.471500" lat="13.989660">
                <ele>0.000000</ele>
                <time>2020-12-05T00:13:24.210Z</time>
            </trkpt>
            <trkpt lon="100.471500" lat="13.989660">
                <ele>0.000000</ele>
                <time>2020-12-05T00:13:24.270Z</time>
            </trkpt>
            <trkpt lon="100.471537" lat="13.990421">
                <ele>0.000000</ele>
                <time>2020-12-05T00:13:29.340Z</time>
            </trkpt>
            <trkpt lon="100.471537" lat="13.990421">
                <ele>0.000000</ele>
                <time>2020-12-05T00:13:29.400Z</time>
            </trkpt>
            <trkpt lon="100.471534" lat="13.990786">
                <ele>0.000000</ele>
                <time>2020-12-05T00:13:31.840Z</time>
            </trkpt>
            <trkpt lon="100.471534" lat="13.990786">
                <ele>0.000000</ele>
                <time>2020-12-05T00:13:31.900Z</time>
            </trkpt>
            <trkpt lon="100.471542" lat="13.991104">
                <ele>0.000000</ele>
                <time>2020-12-05T00:13:34.020Z</time>
            </trkpt>
            <trkpt lon="100.471542" lat="13.991104">
                <ele>0.000000</ele>
                <time>2020-12-05T00:13:34.080Z</time>
            </trkpt>
            <trkpt lon="100.471249" lat="13.991125">
                <ele>0.000000</ele>
                <time>2020-12-05T00:13:35.980Z</time>
            </trkpt>
            <trkpt lon="100.471249" lat="13.991125">
                <ele>0.000000</ele>
                <time>2020-12-05T00:13:36.040Z</time>
            </trkpt>
            <trkpt lon="100.471113" lat="13.992289">
                <ele>0.000000</ele>
                <time>2020-12-05T00:13:43.850Z</time>
            </trkpt>
            <trkpt lon="100.471113" lat="13.992289">
                <ele>0.000000</ele>
                <time>2020-12-05T00:13:43.910Z</time>
            </trkpt>
            <trkpt lon="100.469424" lat="13.992503">
                <ele>0.000000</ele>
                <time>2020-12-05T00:13:54.930Z</time>
            </trkpt>
            <trkpt lon="100.469424" lat="13.992503">
                <ele>0.000000</ele>
                <time>2020-12-05T00:13:54.990Z</time>
            </trkpt>
            <trkpt lon="100.469121" lat="13.992368">
                <ele>0.000000</ele>
                <time>2020-12-05T00:13:57.140Z</time>
            </trkpt>
            <trkpt lon="100.469121" lat="13.992368">
                <ele>0.000000</ele>
                <time>2020-12-05T00:13:57.200Z</time>
            </trkpt>
            <trkpt lon="100.469055" lat="13.995126">
                <ele>0.000000</ele>
                <time>2020-12-05T00:14:15.600Z</time>
            </trkpt>
            <trkpt lon="100.469055" lat="13.995126">
                <ele>0.000000</ele>
                <time>2020-12-05T00:14:15.660Z</time>
            </trkpt>
            <trkpt lon="100.469424" lat="13.997623">
                <ele>0.000000</ele>
                <time>2020-12-05T00:14:32.470Z</time>
            </trkpt>
            <trkpt lon="100.469424" lat="13.997623">
                <ele>0.000000</ele>
                <time>2020-12-05T00:14:32.530Z</time>
            </trkpt>
            <trkpt lon="100.469641" lat="13.997679">
                <ele>0.000000</ele>
                <time>2020-12-05T00:14:33.980Z</time>
            </trkpt>
            <trkpt lon="100.469641" lat="13.997679">
                <ele>0.000000</ele>
                <time>2020-12-05T00:14:34.040Z</time>
            </trkpt>
            <trkpt lon="100.472275" lat="13.996319">
                <ele>0.000000</ele>
                <time>2020-12-05T00:14:53.350Z</time>
            </trkpt>
            <trkpt lon="100.472275" lat="13.996319">
                <ele>0.000000</ele>
                <time>2020-12-05T00:14:53.410Z</time>
            </trkpt>
            <trkpt lon="100.473198" lat="13.998257">
                <ele>0.000000</ele>
                <time>2020-12-05T00:15:07.640Z</time>
            </trkpt>
            <trkpt lon="100.473198" lat="13.998257">
                <ele>0.000000</ele>
                <time>2020-12-05T00:15:07.700Z</time>
            </trkpt>
            <trkpt lon="100.471332" lat="14.000006">
                <ele>0.000000</ele>
                <time>2020-12-05T00:15:24.480Z</time>
            </trkpt>
            <trkpt lon="100.471332" lat="14.000006">
                <ele>0.000000</ele>
                <time>2020-12-05T00:15:24.540Z</time>
            </trkpt>
            <trkpt lon="100.472872" lat="14.002481">
                <ele>0.000000</ele>
                <time>2020-12-05T00:15:43.820Z</time>
            </trkpt>
            <trkpt lon="100.472872" lat="14.002481">
                <ele>0.000000</ele>
                <time>2020-12-05T00:15:43.880Z</time>
            </trkpt>
            <trkpt lon="100.472961" lat="14.002434">
                <ele>0.000000</ele>
                <time>2020-12-05T00:15:44.530Z</time>
            </trkpt>
            <trkpt lon="100.472961" lat="14.002434">
                <ele>0.000000</ele>
                <time>2020-12-05T00:15:44.590Z</time>
            </trkpt>
            <trkpt lon="100.472911" lat="14.002605">
                <ele>0.000000</ele>
                <time>2020-12-05T00:15:45.780Z</time>
            </trkpt>
            <trkpt lon="100.472911" lat="14.002605">
                <ele>0.000000</ele>
                <time>2020-12-05T00:15:45.840Z</time>
            </trkpt>
            <trkpt lon="100.471280" lat="14.004354">
                <ele>0.000000</ele>
                <time>2020-12-05T00:16:01.560Z</time>
            </trkpt>
            <trkpt lon="100.471280" lat="14.004354">
                <ele>0.000000</ele>
                <time>2020-12-05T00:16:01.620Z</time>
            </trkpt>
            <trkpt lon="100.470283" lat="14.005152">
                <ele>0.000000</ele>
                <time>2020-12-05T00:16:09.980Z</time>
            </trkpt>
            <trkpt lon="100.470283" lat="14.005152">
                <ele>0.000000</ele>
                <time>2020-12-05T00:16:10.040Z</time>
            </trkpt>
            <trkpt lon="100.467581" lat="14.006816">
                <ele>0.000000</ele>
                <time>2020-12-05T00:16:30.740Z</time>
            </trkpt>
            <trkpt lon="100.467581" lat="14.006816">
                <ele>0.000000</ele>
                <time>2020-12-05T00:16:30.800Z</time>
            </trkpt>
            <trkpt lon="100.468617" lat="14.009513">
                <ele>0.000000</ele>
                <time>2020-12-05T00:16:49.990Z</time>
            </trkpt>
            <trkpt lon="100.468617" lat="14.009513">
                <ele>0.000000</ele>
                <time>2020-12-05T00:16:50.050Z</time>
            </trkpt>
            <trkpt lon="100.469393" lat="14.009362">
                <ele>0.000000</ele>
                <time>2020-12-05T00:16:55.170Z</time>
            </trkpt>
            <trkpt lon="100.469393" lat="14.009362">
                <ele>0.000000</ele>
                <time>2020-12-05T00:16:55.230Z</time>
            </trkpt>
            <trkpt lon="100.469709" lat="14.010645">
                <ele>0.000000</ele>
                <time>2020-12-05T00:17:04.020Z</time>
            </trkpt>
            <trkpt lon="100.469709" lat="14.010645">
                <ele>0.000000</ele>
                <time>2020-12-05T00:17:04.080Z</time>
            </trkpt>
            <trkpt lon="100.469655" lat="14.011353">
                <ele>0.000000</ele>
                <time>2020-12-05T00:17:08.820Z</time>
            </trkpt>
            <trkpt lon="100.469655" lat="14.011353">
                <ele>0.000000</ele>
                <time>2020-12-05T00:17:08.880Z</time>
            </trkpt>
            <trkpt lon="100.469792" lat="14.011911">
                <ele>0.000000</ele>
                <time>2020-12-05T00:17:12.700Z</time>
            </trkpt>
            <trkpt lon="100.469792" lat="14.011911">
                <ele>0.000000</ele>
                <time>2020-12-05T00:17:12.760Z</time>
            </trkpt>
            <trkpt lon="100.471290" lat="14.016381">
                <ele>0.000000</ele>
                <time>2020-12-05T00:17:44.100Z</time>
            </trkpt>
            <trkpt lon="100.471290" lat="14.016381">
                <ele>0.000000</ele>
                <time>2020-12-05T00:17:44.160Z</time>
            </trkpt>
            <trkpt lon="100.471359" lat="14.016145">
                <ele>0.000000</ele>
                <time>2020-12-05T00:17:45.790Z</time>
            </trkpt>
            <trkpt lon="100.471359" lat="14.016145">
                <ele>0.000000</ele>
                <time>2020-12-05T00:17:45.850Z</time>
            </trkpt>
            <trkpt lon="100.472172" lat="14.015950">
                <ele>0.000000</ele>
                <time>2020-12-05T00:17:51.270Z</time>
            </trkpt>
            <trkpt lon="100.472172" lat="14.015950">
                <ele>0.000000</ele>
                <time>2020-12-05T00:17:51.330Z</time>
            </trkpt>
            <trkpt lon="100.473876" lat="14.019199">
                <ele>0.000000</ele>
                <time>2020-12-05T00:18:15.630Z</time>
            </trkpt>
            <trkpt lon="100.473876" lat="14.019199">
                <ele>0.000000</ele>
                <time>2020-12-05T00:18:15.690Z</time>
            </trkpt>
            <trkpt lon="100.472852" lat="14.019822">
                <ele>0.000000</ele>
                <time>2020-12-05T00:18:23.510Z</time>
            </trkpt>
            <trkpt lon="100.472852" lat="14.019822">
                <ele>0.000000</ele>
                <time>2020-12-05T00:18:23.570Z</time>
            </trkpt>
            <trkpt lon="100.472747" lat="14.020142">
                <ele>0.000000</ele>
                <time>2020-12-05T00:18:25.810Z</time>
            </trkpt>
            <trkpt lon="100.472747" lat="14.020142">
                <ele>0.000000</ele>
                <time>2020-12-05T00:18:25.870Z</time>
            </trkpt>
            <trkpt lon="100.472259" lat="14.020371">
                <ele>0.000000</ele>
                <time>2020-12-05T00:18:29.370Z</time>
            </trkpt>
            <trkpt lon="100.472259" lat="14.020371">
                <ele>0.000000</ele>
                <time>2020-12-05T00:18:29.430Z</time>
            </trkpt>
            <trkpt lon="100.474429" lat="14.024470">
                <ele>0.000000</ele>
                <time>2020-12-05T00:19:00.160Z</time>
            </trkpt>
            <trkpt lon="100.474429" lat="14.024470">
                <ele>0.000000</ele>
                <time>2020-12-05T00:19:00.220Z</time>
            </trkpt>
            <trkpt lon="100.473873" lat="14.024968">
                <ele>0.000000</ele>
                <time>2020-12-05T00:19:05.110Z</time>
            </trkpt>
            <trkpt lon="100.473873" lat="14.024968">
                <ele>0.000000</ele>
                <time>2020-12-05T00:19:05.170Z</time>
            </trkpt>
            <trkpt lon="100.474199" lat="14.025647">
                <ele>0.000000</ele>
                <time>2020-12-05T00:19:10.160Z</time>
            </trkpt>
            <trkpt lon="100.474199" lat="14.025647">
                <ele>0.000000</ele>
                <time>2020-12-05T00:19:10.220Z</time>
            </trkpt>
            <trkpt lon="100.468612" lat="14.028498">
                <ele>0.000000</ele>
                <time>2020-12-05T00:19:51.050Z</time>
            </trkpt>
            <trkpt lon="100.468612" lat="14.028498">
                <ele>0.000000</ele>
                <time>2020-12-05T00:19:51.110Z</time>
            </trkpt>
            <trkpt lon="100.466043" lat="14.023465">
                <ele>0.000000</ele>
                <time>2020-12-05T00:20:28.560Z</time>
            </trkpt>
            <trkpt lon="100.466043" lat="14.023465">
                <ele>0.000000</ele>
                <time>2020-12-05T00:20:28.620Z</time>
            </trkpt>
            <trkpt lon="100.462351" lat="14.025535">
                <ele>0.000000</ele>
                <time>2020-12-05T00:20:56.200Z</time>
            </trkpt>
            <trkpt lon="100.462351" lat="14.025535">
                <ele>0.000000</ele>
                <time>2020-12-05T00:20:56.260Z</time>
            </trkpt>
            <trkpt lon="100.464934" lat="14.030498">
                <ele>0.000000</ele>
                <time>2020-12-05T00:21:33.320Z</time>
            </trkpt>
            <trkpt lon="100.464934" lat="14.030498">
                <ele>0.000000</ele>
                <time>2020-12-05T00:21:33.380Z</time>
            </trkpt>
            <trkpt lon="100.465517" lat="14.030192">
                <ele>0.000000</ele>
                <time>2020-12-05T00:21:37.670Z</time>
            </trkpt>
            <trkpt lon="100.465517" lat="14.030192">
                <ele>0.000000</ele>
                <time>2020-12-05T00:21:37.730Z</time>
            </trkpt>
            <trkpt lon="100.465510" lat="14.030068">
                <ele>0.000000</ele>
                <time>2020-12-05T00:21:38.560Z</time>
            </trkpt>
            <trkpt lon="100.465510" lat="14.030068">
                <ele>0.000000</ele>
                <time>2020-12-05T00:21:38.620Z</time>
            </trkpt>
            <trkpt lon="100.465559" lat="14.030191">
                <ele>0.000000</ele>
                <time>2020-12-05T00:21:39.490Z</time>
            </trkpt>
            <trkpt lon="100.465559" lat="14.030191">
                <ele>0.000000</ele>
                <time>2020-12-05T00:21:39.550Z</time>
            </trkpt>
            <trkpt lon="100.463120" lat="14.031425">
                <ele>0.000000</ele>
                <time>2020-12-05T00:21:57.350Z</time>
            </trkpt>
            <trkpt lon="100.463120" lat="14.031425">
                <ele>0.000000</ele>
                <time>2020-12-05T00:21:57.410Z</time>
            </trkpt>
            <trkpt lon="100.462426" lat="14.031773">
                <ele>0.000000</ele>
                <time>2020-12-05T00:22:02.460Z</time>
            </trkpt>
            <trkpt lon="100.462426" lat="14.031773">
                <ele>0.000000</ele>
                <time>2020-12-05T00:22:02.520Z</time>
            </trkpt>
            <trkpt lon="100.459829" lat="14.033143">
                <ele>0.000000</ele>
                <time>2020-12-05T00:22:21.640Z</time>
            </trkpt>
            <trkpt lon="100.459829" lat="14.033143">
                <ele>0.000000</ele>
                <time>2020-12-05T00:22:21.700Z</time>
            </trkpt>
            <trkpt lon="100.459760" lat="14.033246">
                <ele>0.000000</ele>
                <time>2020-12-05T00:22:22.520Z</time>
            </trkpt>
            <trkpt lon="100.459760" lat="14.033246">
                <ele>0.000000</ele>
                <time>2020-12-05T00:22:22.580Z</time>
            </trkpt>
            <trkpt lon="100.459269" lat="14.033346">
                <ele>0.000000</ele>
                <time>2020-12-05T00:22:25.820Z</time>
            </trkpt>
            <trkpt lon="100.459269" lat="14.033346">
                <ele>0.000000</ele>
                <time>2020-12-05T00:22:25.880Z</time>
            </trkpt>
            <trkpt lon="100.458730" lat="14.033693">
                <ele>0.000000</ele>
                <time>2020-12-05T00:22:30.070Z</time>
            </trkpt>
            <trkpt lon="100.458730" lat="14.033693">
                <ele>0.000000</ele>
                <time>2020-12-05T00:22:30.130Z</time>
            </trkpt>
            <trkpt lon="100.456610" lat="14.029494">
                <ele>0.000000</ele>
                <time>2020-12-05T00:23:01.300Z</time>
            </trkpt>
            <trkpt lon="100.456610" lat="14.029494">
                <ele>0.000000</ele>
                <time>2020-12-05T00:23:01.360Z</time>
            </trkpt>
            <trkpt lon="100.452562" lat="14.032858">
                <ele>0.000000</ele>
                <time>2020-12-05T00:23:35.830Z</time>
            </trkpt>
            <trkpt lon="100.452562" lat="14.032858">
                <ele>0.000000</ele>
                <time>2020-12-05T00:23:35.890Z</time>
            </trkpt>
            <trkpt lon="100.452210" lat="14.032836">
                <ele>0.000000</ele>
                <time>2020-12-05T00:23:38.170Z</time>
            </trkpt>
            <trkpt lon="100.452210" lat="14.032836">
                <ele>0.000000</ele>
                <time>2020-12-05T00:23:38.230Z</time>
            </trkpt>
            <trkpt lon="100.451806" lat="14.033351">
                <ele>0.000000</ele>
                <time>2020-12-05T00:23:42.550Z</time>
            </trkpt>
            <trkpt lon="100.451806" lat="14.033351">
                <ele>0.000000</ele>
                <time>2020-12-05T00:23:42.610Z</time>
            </trkpt>
            <trkpt lon="100.449931" lat="14.034875">
                <ele>0.000000</ele>
                <time>2020-12-05T00:23:58.430Z</time>
            </trkpt>
            <trkpt lon="100.449931" lat="14.034875">
                <ele>0.000000</ele>
                <time>2020-12-05T00:23:58.490Z</time>
            </trkpt>
            <trkpt lon="100.450022" lat="14.034993">
                <ele>0.000000</ele>
                <time>2020-12-05T00:23:59.470Z</time>
            </trkpt>
            <trkpt lon="100.450022" lat="14.034993">
                <ele>0.000000</ele>
                <time>2020-12-05T00:23:59.530Z</time>
            </trkpt>
            <trkpt lon="100.450449" lat="14.034826">
                <ele>0.000000</ele>
                <time>2020-12-05T00:24:02.510Z</time>
            </trkpt>
            <trkpt lon="100.450449" lat="14.034826">
                <ele>0.000000</ele>
                <time>2020-12-05T00:24:02.570Z</time>
            </trkpt>
            <trkpt lon="100.454690" lat="14.042647">
                <ele>0.000000</ele>
                <time>2020-12-05T00:25:01.480Z</time>
            </trkpt>
            <trkpt lon="100.454690" lat="14.042647">
                <ele>0.000000</ele>
                <time>2020-12-05T00:25:01.540Z</time>
            </trkpt>
            <trkpt lon="100.452113" lat="14.043988">
                <ele>0.000000</ele>
                <time>2020-12-05T00:25:20.450Z</time>
            </trkpt>
            <trkpt lon="100.452113" lat="14.043988">
                <ele>0.000000</ele>
                <time>2020-12-05T00:25:20.510Z</time>
            </trkpt>
            <trkpt lon="100.450401" lat="14.044521">
                <ele>0.000000</ele>
                <time>2020-12-05T00:25:32.140Z</time>
            </trkpt>
            <trkpt lon="100.450401" lat="14.044521">
                <ele>0.000000</ele>
                <time>2020-12-05T00:25:32.200Z</time>
            </trkpt>
            <trkpt lon="100.448748" lat="14.045351">
                <ele>0.000000</ele>
                <time>2020-12-05T00:25:44.240Z</time>
            </trkpt>
            <trkpt lon="100.448748" lat="14.045351">
                <ele>0.000000</ele>
                <time>2020-12-05T00:25:44.300Z</time>
            </trkpt>
            <trkpt lon="100.447647" lat="14.043641">
                <ele>0.000000</ele>
                <time>2020-12-05T00:25:57.740Z</time>
            </trkpt>
            <trkpt lon="100.447647" lat="14.043641">
                <ele>0.000000</ele>
                <time>2020-12-05T00:25:57.800Z</time>
            </trkpt>
            <trkpt lon="100.446599" lat="14.044590">
                <ele>0.000000</ele>
                <time>2020-12-05T00:26:07.070Z</time>
            </trkpt>
            <trkpt lon="100.446599" lat="14.044590">
                <ele>0.000000</ele>
                <time>2020-12-05T00:26:07.130Z</time>
            </trkpt>
            <trkpt lon="100.446396" lat="14.044550">
                <ele>0.000000</ele>
                <time>2020-12-05T00:26:08.470Z</time>
            </trkpt>
            <trkpt lon="100.446396" lat="14.044550">
                <ele>0.000000</ele>
                <time>2020-12-05T00:26:08.530Z</time>
            </trkpt>
            <trkpt lon="100.443968" lat="14.045933">
                <ele>0.000000</ele>
                <time>2020-12-05T00:26:26.740Z</time>
            </trkpt>
            <trkpt lon="100.443968" lat="14.045933">
                <ele>0.000000</ele>
                <time>2020-12-05T00:26:26.800Z</time>
            </trkpt>
            <trkpt lon="100.442663" lat="14.046330">
                <ele>0.000000</ele>
                <time>2020-12-05T00:26:35.650Z</time>
            </trkpt>
            <trkpt lon="100.442663" lat="14.046330">
                <ele>0.000000</ele>
                <time>2020-12-05T00:26:35.710Z</time>
            </trkpt>
            <trkpt lon="100.439642" lat="14.042497">
                <ele>0.000000</ele>
                <time>2020-12-05T00:27:07.870Z</time>
            </trkpt>
            <trkpt lon="100.439642" lat="14.042497">
                <ele>0.000000</ele>
                <time>2020-12-05T00:27:07.930Z</time>
            </trkpt>
            <trkpt lon="100.438202" lat="14.042694">
                <ele>0.000000</ele>
                <time>2020-12-05T00:27:17.340Z</time>
            </trkpt>
            <trkpt lon="100.438202" lat="14.042694">
                <ele>0.000000</ele>
                <time>2020-12-05T00:27:17.400Z</time>
            </trkpt>
            <trkpt lon="100.438208" lat="14.042498">
                <ele>0.000000</ele>
                <time>2020-12-05T00:27:18.700Z</time>
            </trkpt>
            <trkpt lon="100.438208" lat="14.042498">
                <ele>0.000000</ele>
                <time>2020-12-05T00:27:18.760Z</time>
            </trkpt>
            <trkpt lon="100.437846" lat="14.042463">
                <ele>0.000000</ele>
                <time>2020-12-05T00:27:21.110Z</time>
            </trkpt>
            <trkpt lon="100.437846" lat="14.042463">
                <ele>0.000000</ele>
                <time>2020-12-05T00:27:21.170Z</time>
            </trkpt>
            <trkpt lon="100.437590" lat="14.039947">
                <ele>0.000000</ele>
                <time>2020-12-05T00:27:38.030Z</time>
            </trkpt>
            <trkpt lon="100.437590" lat="14.039947">
                <ele>0.000000</ele>
                <time>2020-12-05T00:27:38.090Z</time>
            </trkpt>
            <trkpt lon="100.442343" lat="14.038138">
                <ele>0.000000</ele>
                <time>2020-12-05T00:28:11.110Z</time>
            </trkpt>
            <trkpt lon="100.442343" lat="14.038138">
                <ele>0.000000</ele>
                <time>2020-12-05T00:28:11.170Z</time>
            </trkpt>
            <trkpt lon="100.442280" lat="14.035589">
                <ele>0.000000</ele>
                <time>2020-12-05T00:28:28.170Z</time>
            </trkpt>
            <trkpt lon="100.442280" lat="14.035589">
                <ele>0.000000</ele>
                <time>2020-12-05T00:28:28.230Z</time>
            </trkpt>
            <trkpt lon="100.442213" lat="14.033539">
                <ele>0.000000</ele>
                <time>2020-12-05T00:28:41.900Z</time>
            </trkpt>
            <trkpt lon="100.442213" lat="14.033539">
                <ele>0.000000</ele>
                <time>2020-12-05T00:28:41.960Z</time>
            </trkpt>
            <trkpt lon="100.442201" lat="14.032043">
                <ele>0.000000</ele>
                <time>2020-12-05T00:28:51.940Z</time>
            </trkpt>
            <trkpt lon="100.442201" lat="14.032043">
                <ele>0.000000</ele>
                <time>2020-12-05T00:28:52Z</time>
            </trkpt>
            <trkpt lon="100.442115" lat="14.030558">
                <ele>0.000000</ele>
                <time>2020-12-05T00:29:01.920Z</time>
            </trkpt>
            <trkpt lon="100.442115" lat="14.030558">
                <ele>0.000000</ele>
                <time>2020-12-05T00:29:01.980Z</time>
            </trkpt>
            <trkpt lon="100.441223" lat="14.030966">
                <ele>0.000000</ele>
                <time>2020-12-05T00:29:08.350Z</time>
            </trkpt>
            <trkpt lon="100.441223" lat="14.030966">
                <ele>0.000000</ele>
                <time>2020-12-05T00:29:08.410Z</time>
            </trkpt>
            <trkpt lon="100.439857" lat="14.031441">
                <ele>0.000000</ele>
                <time>2020-12-05T00:29:17.800Z</time>
            </trkpt>
            <trkpt lon="100.439857" lat="14.031441">
                <ele>0.000000</ele>
                <time>2020-12-05T00:29:17.860Z</time>
            </trkpt>
            <trkpt lon="100.439577" lat="14.030888">
                <ele>0.000000</ele>
                <time>2020-12-05T00:29:21.970Z</time>
            </trkpt>
            <trkpt lon="100.439577" lat="14.030888">
                <ele>0.000000</ele>
                <time>2020-12-05T00:29:22.030Z</time>
            </trkpt>
            <trkpt lon="100.439178" lat="14.031028">
                <ele>0.000000</ele>
                <time>2020-12-05T00:29:24.770Z</time>
            </trkpt>
            <trkpt lon="100.439178" lat="14.031028">
                <ele>0.000000</ele>
                <time>2020-12-05T00:29:24.830Z</time>
            </trkpt>
            <trkpt lon="100.438854" lat="14.030537">
                <ele>0.000000</ele>
                <time>2020-12-05T00:29:28.720Z</time>
            </trkpt>
            <trkpt lon="100.438854" lat="14.030537">
                <ele>0.000000</ele>
                <time>2020-12-05T00:29:28.780Z</time>
            </trkpt>
            <trkpt lon="100.435750" lat="14.031551">
                <ele>0.000000</ele>
                <time>2020-12-05T00:29:49.960Z</time>
            </trkpt>
            <trkpt lon="100.435750" lat="14.031551">
                <ele>0.000000</ele>
                <time>2020-12-05T00:29:50.020Z</time>
            </trkpt>
            <trkpt lon="100.434534" lat="14.029449">
                <ele>0.000000</ele>
                <time>2020-12-05T00:30:06.090Z</time>
            </trkpt>
            <trkpt lon="100.434534" lat="14.029449">
                <ele>0.000000</ele>
                <time>2020-12-05T00:30:06.150Z</time>
            </trkpt>
            <trkpt lon="100.434661" lat="14.029274">
                <ele>0.000000</ele>
                <time>2020-12-05T00:30:07.570Z</time>
            </trkpt>
            <trkpt lon="100.434661" lat="14.029274">
                <ele>0.000000</ele>
                <time>2020-12-05T00:30:07.630Z</time>
            </trkpt>
            <trkpt lon="100.436969" lat="14.028429">
                <ele>0.000000</ele>
                <time>2020-12-05T00:30:23.590Z</time>
            </trkpt>
            <trkpt lon="100.436969" lat="14.028429">
                <ele>0.000000</ele>
                <time>2020-12-05T00:30:23.650Z</time>
            </trkpt>
            <trkpt lon="100.442493" lat="14.026561">
                <ele>0.000000</ele>
                <time>2020-12-05T00:31:01.490Z</time>
            </trkpt>
            <trkpt lon="100.442493" lat="14.026561">
                <ele>0.000000</ele>
                <time>2020-12-05T00:31:01.550Z</time>
            </trkpt>
            <trkpt lon="100.442514" lat="14.024985">
                <ele>0.000000</ele>
                <time>2020-12-05T00:31:12.050Z</time>
            </trkpt>
        </trkseg>
    </trk>
</gpx>